sensor_id;sensor_type;location;lat;lon;timestamp;P1;durP1;ratioP1;P2;durP2;ratioP2
29902;SDS011;30288;50.514;9.678;2023-03-01T00:00:08;37.97;;;17.63;;
29902;SDS011;30288;50.514;9.678;2023-03-01T00:02:15;40.13;;;19.05;;
29902;SDS011;30288;50.514;9.678;2023-03-01T00:04:20;46.33;;;19.95;;
29902;SDS011;30288;50.514;9.678;2023-03-01T00:06:26;44.95;;;19.40;;
29902;SDS011;30288;50.514;9.678;2023-03-01T00:08:32;45.83;;;21.08;;
29902;SDS011;30288;50.514;9.678;2023-03-01T00:10:38;47.75;;;20.48;;
29902;SDS011;30288;50.514;9.678;2023-03-01T00:12:44;43.40;;;20.58;;
29902;SDS011;30288;50.514;9.678;2023-03-01T00:14:49;39.95;;;19.75;;
29902;SDS011;30288;50.514;9.678;2023-03-01T00:16:57;40.53;;;19.27;;
29902;SDS011;30288;50.514;9.678;2023-03-01T00:19:03;38.78;;;20.17;;
29902;SDS011;30288;50.514;9.678;2023-03-01T00:21:09;43.45;;;20.70;;
29902;SDS011;30288;50.514;9.678;2023-03-01T00:23:14;39.35;;;19.23;;
29902;SDS011;30288;50.514;9.678;2023-03-01T00:25:22;41.35;;;19.23;;
29902;SDS011;30288;50.514;9.678;2023-03-01T00:27:27;41.33;;;19.55;;
29902;SDS011;30288;50.514;9.678;2023-03-01T00:29:33;42.03;;;20.75;;
29902;SDS011;30288;50.514;9.678;2023-03-01T00:31:38;47.92;;;20.05;;
29902;SDS011;30288;50.514;9.678;2023-03-01T00:33:46;41.22;;;20.27;;
29902;SDS011;30288;50.514;9.678;2023-03-01T00:35:51;41.90;;;19.73;;
29902;SDS011;30288;50.514;9.678;2023-03-01T00:37:57;39.03;;;20.55;;
29902;SDS011;30288;50.514;9.678;2023-03-01T00:40:02;43.20;;;19.85;;
29902;SDS011;30288;50.514;9.678;2023-03-01T00:42:10;38.78;;;18.40;;
29902;SDS011;30288;50.514;9.678;2023-03-01T00:44:15;43.15;;;19.15;;
29902;SDS011;30288;50.514;9.678;2023-03-01T00:46:23;39.38;;;18.05;;
29902;SDS011;30288;50.514;9.678;2023-03-01T00:48:32;38.22;;;19.10;;
29902;SDS011;30288;50.514;9.678;2023-03-01T00:50:41;37.38;;;19.35;;
29902;SDS011;30288;50.514;9.678;2023-03-01T00:52:46;39.80;;;20.08;;
29902;SDS011;30288;50.514;9.678;2023-03-01T00:54:51;39.88;;;19.85;;
29902;SDS011;30288;50.514;9.678;2023-03-01T00:56:58;41.42;;;19.77;;
29902;SDS011;30288;50.514;9.678;2023-03-01T00:59:03;41.00;;;20.45;;
29902;SDS011;30288;50.514;9.678;2023-03-01T01:01:09;43.33;;;20.08;;
29902;SDS011;30288;50.514;9.678;2023-03-01T01:03:21;38.92;;;20.38;;
29902;SDS011;30288;50.514;9.678;2023-03-01T01:05:28;37.22;;;19.15;;
29902;SDS011;30288;50.514;9.678;2023-03-01T01:07:36;40.75;;;20.08;;
29902;SDS011;30288;50.514;9.678;2023-03-01T01:09:41;43.40;;;19.73;;
29902;SDS011;30288;50.514;9.678;2023-03-01T01:11:46;37.92;;;18.90;;
29902;SDS011;30288;50.514;9.678;2023-03-01T01:13:55;45.75;;;20.42;;
29902;SDS011;30288;50.514;9.678;2023-03-01T01:16:03;48.30;;;23.02;;
29902;SDS011;30288;50.514;9.678;2023-03-01T01:18:09;40.40;;;20.23;;
29902;SDS011;30288;50.514;9.678;2023-03-01T01:20:15;37.03;;;19.00;;
29902;SDS011;30288;50.514;9.678;2023-03-01T01:22:21;43.38;;;19.52;;
29902;SDS011;30288;50.514;9.678;2023-03-01T01:24:28;45.85;;;20.33;;
29902;SDS011;30288;50.514;9.678;2023-03-01T01:26:34;42.95;;;20.17;;
29902;SDS011;30288;50.514;9.678;2023-03-01T01:28:39;40.00;;;18.42;;
29902;SDS011;30288;50.514;9.678;2023-03-01T01:30:45;36.92;;;18.77;;
29902;SDS011;30288;50.514;9.678;2023-03-01T01:32:50;38.08;;;18.58;;
29902;SDS011;30288;50.514;9.678;2023-03-01T01:34:55;38.30;;;19.38;;
29902;SDS011;30288;50.514;9.678;2023-03-01T01:37:00;37.35;;;18.80;;
29902;SDS011;30288;50.514;9.678;2023-03-01T01:39:09;36.38;;;17.55;;
29902;SDS011;30288;50.514;9.678;2023-03-01T01:41:18;41.10;;;18.25;;
29902;SDS011;30288;50.514;9.678;2023-03-01T01:43:25;38.25;;;18.15;;
29902;SDS011;30288;50.514;9.678;2023-03-01T01:45:33;41.75;;;18.70;;
29902;SDS011;30288;50.514;9.678;2023-03-01T01:47:40;37.55;;;17.83;;
29902;SDS011;30288;50.514;9.678;2023-03-01T01:49:50;40.50;;;19.02;;
29902;SDS011;30288;50.514;9.678;2023-03-01T01:52:06;37.25;;;18.98;;
29902;SDS011;30288;50.514;9.678;2023-03-01T01:54:15;42.05;;;19.98;;
29902;SDS011;30288;50.514;9.678;2023-03-01T01:56:27;42.53;;;19.95;;
29902;SDS011;30288;50.514;9.678;2023-03-01T01:58:34;41.17;;;19.73;;
29902;SDS011;30288;50.514;9.678;2023-03-01T02:00:40;41.58;;;20.75;;
29902;SDS011;30288;50.514;9.678;2023-03-01T02:02:45;36.40;;;18.50;;
29902;SDS011;30288;50.514;9.678;2023-03-01T02:04:58;36.95;;;18.67;;
29902;SDS011;30288;50.514;9.678;2023-03-01T02:07:16;34.97;;;18.30;;
29902;SDS011;30288;50.514;9.678;2023-03-01T02:09:25;41.30;;;19.00;;
29902;SDS011;30288;50.514;9.678;2023-03-01T02:11:34;44.13;;;19.20;;
29902;SDS011;30288;50.514;9.678;2023-03-01T02:13:41;37.10;;;18.60;;
29902;SDS011;30288;50.514;9.678;2023-03-01T02:15:46;46.03;;;20.70;;
29902;SDS011;30288;50.514;9.678;2023-03-01T02:17:52;39.83;;;21.02;;
29902;SDS011;30288;50.514;9.678;2023-03-01T02:20:03;42.20;;;20.52;;
29902;SDS011;30288;50.514;9.678;2023-03-01T02:22:20;40.85;;;19.50;;
29902;SDS011;30288;50.514;9.678;2023-03-01T02:24:32;41.22;;;19.65;;
29902;SDS011;30288;50.514;9.678;2023-03-01T02:26:48;43.90;;;20.40;;
29902;SDS011;30288;50.514;9.678;2023-03-01T02:28:59;39.42;;;19.45;;
29902;SDS011;30288;50.514;9.678;2023-03-01T02:31:05;41.80;;;18.85;;
29902;SDS011;30288;50.514;9.678;2023-03-01T02:33:25;41.60;;;19.85;;
29902;SDS011;30288;50.514;9.678;2023-03-01T02:35:35;40.88;;;20.45;;
29902;SDS011;30288;50.514;9.678;2023-03-01T02:37:43;43.67;;;21.45;;
29902;SDS011;30288;50.514;9.678;2023-03-01T02:39:50;43.10;;;21.23;;
29902;SDS011;30288;50.514;9.678;2023-03-01T02:42:02;40.58;;;19.40;;
29902;SDS011;30288;50.514;9.678;2023-03-01T02:44:13;36.95;;;19.13;;
29902;SDS011;30288;50.514;9.678;2023-03-01T02:46:19;34.78;;;17.98;;
29902;SDS011;30288;50.514;9.678;2023-03-01T02:48:26;39.65;;;18.90;;
29902;SDS011;30288;50.514;9.678;2023-03-01T02:50:42;39.05;;;19.55;;
29902;SDS011;30288;50.514;9.678;2023-03-01T02:53:02;39.28;;;19.15;;
29902;SDS011;30288;50.514;9.678;2023-03-01T02:55:12;40.63;;;18.98;;
29902;SDS011;30288;50.514;9.678;2023-03-01T02:57:21;35.50;;;18.42;;
29902;SDS011;30288;50.514;9.678;2023-03-01T02:59:32;37.42;;;19.35;;
29902;SDS011;30288;50.514;9.678;2023-03-01T03:01:42;38.13;;;19.60;;
29902;SDS011;30288;50.514;9.678;2023-03-01T03:03:48;38.45;;;18.55;;
29902;SDS011;30288;50.514;9.678;2023-03-01T03:05:53;39.35;;;18.23;;
29902;SDS011;30288;50.514;9.678;2023-03-01T03:08:00;38.28;;;18.65;;
29902;SDS011;30288;50.514;9.678;2023-03-01T03:10:10;35.50;;;18.30;;
29902;SDS011;30288;50.514;9.678;2023-03-01T03:12:22;42.50;;;19.17;;
29902;SDS011;30288;50.514;9.678;2023-03-01T03:14:27;35.38;;;18.25;;
29902;SDS011;30288;50.514;9.678;2023-03-01T03:16:39;39.83;;;18.15;;
29902;SDS011;30288;50.514;9.678;2023-03-01T03:18:46;40.38;;;18.42;;
29902;SDS011;30288;50.514;9.678;2023-03-01T03:20:52;42.30;;;20.05;;
29902;SDS011;30288;50.514;9.678;2023-03-01T03:22:58;39.55;;;20.05;;
29902;SDS011;30288;50.514;9.678;2023-03-01T03:25:03;42.50;;;20.38;;
29902;SDS011;30288;50.514;9.678;2023-03-01T03:27:12;39.00;;;19.20;;
29902;SDS011;30288;50.514;9.678;2023-03-01T03:29:17;40.10;;;18.80;;
29902;SDS011;30288;50.514;9.678;2023-03-01T03:31:22;37.80;;;18.40;;
29902;SDS011;30288;50.514;9.678;2023-03-01T03:33:31;38.13;;;19.23;;
29902;SDS011;30288;50.514;9.678;2023-03-01T03:35:38;43.05;;;19.33;;
29902;SDS011;30288;50.514;9.678;2023-03-01T03:37:45;40.63;;;19.25;;
29902;SDS011;30288;50.514;9.678;2023-03-01T03:40:08;43.85;;;20.55;;
29902;SDS011;30288;50.514;9.678;2023-03-01T03:42:17;40.65;;;19.80;;
29902;SDS011;30288;50.514;9.678;2023-03-01T03:44:22;43.47;;;20.58;;
29902;SDS011;30288;50.514;9.678;2023-03-01T03:46:27;44.47;;;21.58;;
29902;SDS011;30288;50.514;9.678;2023-03-01T03:48:35;44.65;;;20.60;;
29902;SDS011;30288;50.514;9.678;2023-03-01T03:50:46;37.22;;;19.13;;
29902;SDS011;30288;50.514;9.678;2023-03-01T03:52:54;38.53;;;19.23;;
29902;SDS011;30288;50.514;9.678;2023-03-01T03:55:02;38.15;;;17.92;;
29902;SDS011;30288;50.514;9.678;2023-03-01T03:57:11;43.80;;;19.35;;
29902;SDS011;30288;50.514;9.678;2023-03-01T03:59:16;45.42;;;19.73;;
29902;SDS011;30288;50.514;9.678;2023-03-01T04:01:21;46.17;;;20.25;;
29902;SDS011;30288;50.514;9.678;2023-03-01T04:03:27;43.05;;;19.90;;
29902;SDS011;30288;50.514;9.678;2023-03-01T04:05:36;46.80;;;18.95;;
29902;SDS011;30288;50.514;9.678;2023-03-01T04:07:43;42.35;;;19.15;;
29902;SDS011;30288;50.514;9.678;2023-03-01T04:09:50;38.80;;;18.48;;
29902;SDS011;30288;50.514;9.678;2023-03-01T04:11:57;35.05;;;18.33;;
29902;SDS011;30288;50.514;9.678;2023-03-01T04:14:03;39.28;;;18.45;;
29902;SDS011;30288;50.514;9.678;2023-03-01T04:16:08;37.13;;;18.27;;
29902;SDS011;30288;50.514;9.678;2023-03-01T04:18:13;37.35;;;18.38;;
29902;SDS011;30288;50.514;9.678;2023-03-01T04:20:21;39.97;;;18.88;;
29902;SDS011;30288;50.514;9.678;2023-03-01T04:22:32;38.25;;;18.25;;
29902;SDS011;30288;50.514;9.678;2023-03-01T04:24:37;35.78;;;18.50;;
29902;SDS011;30288;50.514;9.678;2023-03-01T04:26:42;35.55;;;17.30;;
29902;SDS011;30288;50.514;9.678;2023-03-01T04:28:48;33.75;;;17.13;;
29902;SDS011;30288;50.514;9.678;2023-03-01T04:30:53;35.63;;;17.90;;
29902;SDS011;30288;50.514;9.678;2023-03-01T04:33:00;43.63;;;19.42;;
29902;SDS011;30288;50.514;9.678;2023-03-01T04:35:07;34.53;;;18.00;;
29902;SDS011;30288;50.514;9.678;2023-03-01T04:37:13;39.45;;;18.38;;
29902;SDS011;30288;50.514;9.678;2023-03-01T04:39:21;34.45;;;17.67;;
29902;SDS011;30288;50.514;9.678;2023-03-01T04:41:27;30.90;;;16.10;;
29902;SDS011;30288;50.514;9.678;2023-03-01T04:43:32;30.73;;;16.23;;
29902;SDS011;30288;50.514;9.678;2023-03-01T04:45:38;35.28;;;18.25;;
29902;SDS011;30288;50.514;9.678;2023-03-01T04:47:43;35.55;;;18.02;;
29902;SDS011;30288;50.514;9.678;2023-03-01T04:49:50;39.35;;;17.73;;
29902;SDS011;30288;50.514;9.678;2023-03-01T04:51:56;39.75;;;17.48;;
29902;SDS011;30288;50.514;9.678;2023-03-01T04:54:05;36.42;;;16.70;;
29902;SDS011;30288;50.514;9.678;2023-03-01T04:56:14;34.58;;;15.60;;
29902;SDS011;30288;50.514;9.678;2023-03-01T04:58:20;39.15;;;18.50;;
29902;SDS011;30288;50.514;9.678;2023-03-01T05:00:25;34.42;;;16.33;;
29902;SDS011;30288;50.514;9.678;2023-03-01T05:02:31;36.00;;;17.23;;
29902;SDS011;30288;50.514;9.678;2023-03-01T05:04:36;34.58;;;17.10;;
29902;SDS011;30288;50.514;9.678;2023-03-01T05:06:42;40.47;;;19.05;;
29902;SDS011;30288;50.514;9.678;2023-03-01T05:08:48;37.08;;;18.13;;
29902;SDS011;30288;50.514;9.678;2023-03-01T05:10:53;36.55;;;19.02;;
29902;SDS011;30288;50.514;9.678;2023-03-01T05:13:01;36.53;;;17.92;;
29902;SDS011;30288;50.514;9.678;2023-03-01T05:15:08;41.50;;;17.98;;
29902;SDS011;30288;50.514;9.678;2023-03-01T05:17:14;36.35;;;17.05;;
29902;SDS011;30288;50.514;9.678;2023-03-01T05:19:19;38.40;;;17.80;;
29902;SDS011;30288;50.514;9.678;2023-03-01T05:21:25;38.65;;;17.73;;
29902;SDS011;30288;50.514;9.678;2023-03-01T05:23:32;37.88;;;17.92;;
29902;SDS011;30288;50.514;9.678;2023-03-01T05:25:37;40.17;;;19.13;;
29902;SDS011;30288;50.514;9.678;2023-03-01T05:27:44;41.35;;;18.23;;
29902;SDS011;30288;50.514;9.678;2023-03-01T05:29:52;44.38;;;20.02;;
29902;SDS011;30288;50.514;9.678;2023-03-01T05:31:57;41.45;;;18.85;;
29902;SDS011;30288;50.514;9.678;2023-03-01T05:34:04;41.80;;;20.45;;
29902;SDS011;30288;50.514;9.678;2023-03-01T05:36:09;42.50;;;19.98;;
29902;SDS011;30288;50.514;9.678;2023-03-01T05:38:15;49.88;;;22.25;;
29902;SDS011;30288;50.514;9.678;2023-03-01T05:40:22;42.55;;;20.55;;
29902;SDS011;30288;50.514;9.678;2023-03-01T05:42:28;44.80;;;20.02;;
29902;SDS011;30288;50.514;9.678;2023-03-01T05:44:33;41.15;;;19.88;;
29902;SDS011;30288;50.514;9.678;2023-03-01T05:46:41;40.88;;;19.30;;
29902;SDS011;30288;50.514;9.678;2023-03-01T05:48:46;45.75;;;19.38;;
29902;SDS011;30288;50.514;9.678;2023-03-01T05:50:51;41.85;;;19.42;;
29902;SDS011;30288;50.514;9.678;2023-03-01T05:52:57;38.90;;;18.77;;
29902;SDS011;30288;50.514;9.678;2023-03-01T05:55:06;40.72;;;19.27;;
29902;SDS011;30288;50.514;9.678;2023-03-01T05:57:12;37.75;;;18.50;;
29902;SDS011;30288;50.514;9.678;2023-03-01T05:59:17;40.38;;;18.75;;
29902;SDS011;30288;50.514;9.678;2023-03-01T06:01:23;38.40;;;18.65;;
29902;SDS011;30288;50.514;9.678;2023-03-01T06:03:30;42.08;;;20.58;;
29902;SDS011;30288;50.514;9.678;2023-03-01T06:05:36;39.80;;;19.35;;
29902;SDS011;30288;50.514;9.678;2023-03-01T06:07:41;43.17;;;20.45;;
29902;SDS011;30288;50.514;9.678;2023-03-01T06:09:47;49.20;;;22.38;;
29902;SDS011;30288;50.514;9.678;2023-03-01T06:11:55;38.47;;;19.58;;
29902;SDS011;30288;50.514;9.678;2023-03-01T06:14:01;45.17;;;21.48;;
29902;SDS011;30288;50.514;9.678;2023-03-01T06:16:09;46.90;;;21.02;;
29902;SDS011;30288;50.514;9.678;2023-03-01T06:18:15;44.15;;;20.52;;
29902;SDS011;30288;50.514;9.678;2023-03-01T06:20:23;50.92;;;22.23;;
29902;SDS011;30288;50.514;9.678;2023-03-01T06:22:30;46.20;;;21.13;;
29902;SDS011;30288;50.514;9.678;2023-03-01T06:24:36;53.38;;;21.13;;
29902;SDS011;30288;50.514;9.678;2023-03-01T06:26:41;46.28;;;21.55;;
29902;SDS011;30288;50.514;9.678;2023-03-01T06:28:46;55.00;;;23.05;;
29902;SDS011;30288;50.514;9.678;2023-03-01T06:30:53;50.20;;;22.42;;
29902;SDS011;30288;50.514;9.678;2023-03-01T06:32:58;52.15;;;22.17;;
29902;SDS011;30288;50.514;9.678;2023-03-01T06:35:05;47.00;;;21.73;;
29902;SDS011;30288;50.514;9.678;2023-03-01T06:37:14;47.28;;;22.02;;
29902;SDS011;30288;50.514;9.678;2023-03-01T06:39:22;49.67;;;22.08;;
29902;SDS011;30288;50.514;9.678;2023-03-01T06:41:28;50.72;;;23.48;;
29902;SDS011;30288;50.514;9.678;2023-03-01T06:43:34;48.75;;;22.58;;
29902;SDS011;30288;50.514;9.678;2023-03-01T06:45:40;50.78;;;24.08;;
29902;SDS011;30288;50.514;9.678;2023-03-01T06:47:45;53.70;;;23.92;;
29902;SDS011;30288;50.514;9.678;2023-03-01T06:49:51;49.60;;;23.60;;
29902;SDS011;30288;50.514;9.678;2023-03-01T06:51:56;62.58;;;26.45;;
29902;SDS011;30288;50.514;9.678;2023-03-01T06:54:04;62.90;;;27.45;;
29902;SDS011;30288;50.514;9.678;2023-03-01T06:56:09;58.83;;;25.90;;
29902;SDS011;30288;50.514;9.678;2023-03-01T06:58:14;53.45;;;25.92;;
29902;SDS011;30288;50.514;9.678;2023-03-01T07:00:20;52.13;;;25.52;;
29902;SDS011;30288;50.514;9.678;2023-03-01T07:02:30;49.42;;;24.15;;
29902;SDS011;30288;50.514;9.678;2023-03-01T07:04:35;53.75;;;24.30;;
29902;SDS011;30288;50.514;9.678;2023-03-01T07:06:40;48.78;;;23.98;;
29902;SDS011;30288;50.514;9.678;2023-03-01T07:08:46;49.28;;;23.77;;
29902;SDS011;30288;50.514;9.678;2023-03-01T07:10:57;48.45;;;23.65;;
29902;SDS011;30288;50.514;9.678;2023-03-01T07:13:04;46.03;;;23.48;;
29902;SDS011;30288;50.514;9.678;2023-03-01T07:15:11;45.70;;;22.50;;
29902;SDS011;30288;50.514;9.678;2023-03-01T07:17:17;42.70;;;22.42;;
29902;SDS011;30288;50.514;9.678;2023-03-01T07:19:22;44.42;;;20.90;;
29902;SDS011;30288;50.514;9.678;2023-03-01T07:21:28;46.25;;;22.42;;
29902;SDS011;30288;50.514;9.678;2023-03-01T07:23:33;46.47;;;21.63;;
29902;SDS011;30288;50.514;9.678;2023-03-01T07:25:39;39.33;;;20.30;;
29902;SDS011;30288;50.514;9.678;2023-03-01T07:27:51;43.55;;;20.77;;
29902;SDS011;30288;50.514;9.678;2023-03-01T07:29:57;39.90;;;21.10;;
29902;SDS011;30288;50.514;9.678;2023-03-01T07:32:03;41.50;;;20.73;;
29902;SDS011;30288;50.514;9.678;2023-03-01T07:34:09;40.50;;;20.67;;
29902;SDS011;30288;50.514;9.678;2023-03-01T07:36:17;39.97;;;20.95;;
29902;SDS011;30288;50.514;9.678;2023-03-01T07:38:22;42.90;;;21.83;;
29902;SDS011;30288;50.514;9.678;2023-03-01T07:40:27;38.15;;;19.58;;
29902;SDS011;30288;50.514;9.678;2023-03-01T07:42:33;37.78;;;19.38;;
29902;SDS011;30288;50.514;9.678;2023-03-01T07:44:41;40.33;;;20.95;;
29902;SDS011;30288;50.514;9.678;2023-03-01T07:46:50;37.88;;;20.15;;
29902;SDS011;30288;50.514;9.678;2023-03-01T07:48:58;36.10;;;20.13;;
29902;SDS011;30288;50.514;9.678;2023-03-01T07:51:07;40.10;;;20.00;;
29902;SDS011;30288;50.514;9.678;2023-03-01T07:53:12;34.58;;;18.88;;
29902;SDS011;30288;50.514;9.678;2023-03-01T07:55:17;38.92;;;19.48;;
29902;SDS011;30288;50.514;9.678;2023-03-01T07:57:23;43.90;;;21.13;;
29902;SDS011;30288;50.514;9.678;2023-03-01T07:59:28;38.50;;;19.52;;
29902;SDS011;30288;50.514;9.678;2023-03-01T08:01:36;39.50;;;19.48;;
29902;SDS011;30288;50.514;9.678;2023-03-01T08:03:42;38.20;;;19.13;;
29902;SDS011;30288;50.514;9.678;2023-03-01T08:05:49;34.83;;;19.80;;
29902;SDS011;30288;50.514;9.678;2023-03-01T08:07:57;36.63;;;20.35;;
29902;SDS011;30288;50.514;9.678;2023-03-01T08:10:02;37.40;;;20.38;;
29902;SDS011;30288;50.514;9.678;2023-03-01T08:12:08;34.17;;;19.55;;
29902;SDS011;30288;50.514;9.678;2023-03-01T08:14:13;42.10;;;20.77;;
29902;SDS011;30288;50.514;9.678;2023-03-01T08:16:18;37.80;;;18.98;;
29902;SDS011;30288;50.514;9.678;2023-03-01T08:18:26;40.92;;;18.80;;
29902;SDS011;30288;50.514;9.678;2023-03-01T08:20:31;34.50;;;17.85;;
29902;SDS011;30288;50.514;9.678;2023-03-01T08:22:36;36.05;;;18.63;;
29902;SDS011;30288;50.514;9.678;2023-03-01T08:24:41;38.10;;;18.98;;
29902;SDS011;30288;50.514;9.678;2023-03-01T08:26:46;34.58;;;18.77;;
29902;SDS011;30288;50.514;9.678;2023-03-01T08:28:52;35.97;;;18.10;;
29902;SDS011;30288;50.514;9.678;2023-03-01T08:30:57;34.05;;;17.75;;
29902;SDS011;30288;50.514;9.678;2023-03-01T08:33:02;31.02;;;17.08;;
29902;SDS011;30288;50.514;9.678;2023-03-01T08:35:10;35.60;;;18.45;;
29902;SDS011;30288;50.514;9.678;2023-03-01T08:37:15;36.95;;;19.42;;
29902;SDS011;30288;50.514;9.678;2023-03-01T08:39:20;33.58;;;17.65;;
29902;SDS011;30288;50.514;9.678;2023-03-01T08:41:26;31.77;;;19.08;;
29902;SDS011;30288;50.514;9.678;2023-03-01T08:43:32;31.48;;;17.45;;
29902;SDS011;30288;50.514;9.678;2023-03-01T08:45:37;35.40;;;18.15;;
29902;SDS011;30288;50.514;9.678;2023-03-01T08:47:42;38.47;;;18.55;;
29902;SDS011;30288;50.514;9.678;2023-03-01T08:49:48;32.83;;;18.17;;
29902;SDS011;30288;50.514;9.678;2023-03-01T08:51:57;33.38;;;17.90;;
29902;SDS011;30288;50.514;9.678;2023-03-01T08:54:02;28.52;;;16.13;;
29902;SDS011;30288;50.514;9.678;2023-03-01T08:56:08;32.47;;;18.13;;
29902;SDS011;30288;50.514;9.678;2023-03-01T08:58:14;30.67;;;17.27;;
29902;SDS011;30288;50.514;9.678;2023-03-01T09:00:19;29.40;;;16.73;;
29902;SDS011;30288;50.514;9.678;2023-03-01T09:02:26;31.23;;;15.48;;
29902;SDS011;30288;50.514;9.678;2023-03-01T09:04:31;28.42;;;14.98;;
29902;SDS011;30288;50.514;9.678;2023-03-01T09:06:36;26.98;;;14.13;;
29902;SDS011;30288;50.514;9.678;2023-03-01T09:08:45;27.00;;;14.85;;
29902;SDS011;30288;50.514;9.678;2023-03-01T09:10:52;32.58;;;14.77;;
29902;SDS011;30288;50.514;9.678;2023-03-01T09:12:57;26.20;;;14.32;;
29902;SDS011;30288;50.514;9.678;2023-03-01T09:15:03;27.98;;;14.18;;
29902;SDS011;30288;50.514;9.678;2023-03-01T09:17:09;25.67;;;14.32;;
29902;SDS011;30288;50.514;9.678;2023-03-01T09:19:14;28.00;;;13.45;;
29902;SDS011;30288;50.514;9.678;2023-03-01T09:21:21;24.70;;;13.40;;
29902;SDS011;30288;50.514;9.678;2023-03-01T09:23:41;22.35;;;13.13;;
29902;SDS011;30288;50.514;9.678;2023-03-01T09:25:50;22.42;;;13.45;;
29902;SDS011;30288;50.514;9.678;2023-03-01T09:27:56;21.88;;;12.65;;
29902;SDS011;30288;50.514;9.678;2023-03-01T09:30:01;25.98;;;13.80;;
29902;SDS011;30288;50.514;9.678;2023-03-01T09:32:07;25.50;;;13.30;;
29902;SDS011;30288;50.514;9.678;2023-03-01T09:34:12;24.25;;;13.23;;
29902;SDS011;30288;50.514;9.678;2023-03-01T09:36:21;23.73;;;13.27;;
29902;SDS011;30288;50.514;9.678;2023-03-01T09:38:28;21.10;;;12.27;;
29902;SDS011;30288;50.514;9.678;2023-03-01T09:40:36;23.52;;;14.07;;
29902;SDS011;30288;50.514;9.678;2023-03-01T09:42:53;20.60;;;12.05;;
29902;SDS011;30288;50.514;9.678;2023-03-01T09:45:05;20.50;;;12.13;;
29902;SDS011;30288;50.514;9.678;2023-03-01T09:47:19;27.38;;;13.02;;
29902;SDS011;30288;50.514;9.678;2023-03-01T09:49:28;26.02;;;12.05;;
29902;SDS011;30288;50.514;9.678;2023-03-01T09:51:37;21.55;;;12.18;;
29902;SDS011;30288;50.514;9.678;2023-03-01T09:53:42;25.05;;;12.52;;
29902;SDS011;30288;50.514;9.678;2023-03-01T09:55:52;23.05;;;12.63;;
29902;SDS011;30288;50.514;9.678;2023-03-01T09:58:06;20.55;;;11.82;;
29902;SDS011;30288;50.514;9.678;2023-03-01T10:00:37;25.92;;;11.68;;
29902;SDS011;30288;50.514;9.678;2023-03-01T10:02:48;23.27;;;12.25;;
29902;SDS011;30288;50.514;9.678;2023-03-01T10:05:04;27.30;;;13.00;;
29902;SDS011;30288;50.514;9.678;2023-03-01T10:07:27;22.17;;;12.77;;
29902;SDS011;30288;50.514;9.678;2023-03-01T10:09:43;23.42;;;13.60;;
29902;SDS011;30288;50.514;9.678;2023-03-01T10:11:53;23.77;;;13.82;;
29902;SDS011;30288;50.514;9.678;2023-03-01T10:14:01;24.83;;;13.38;;
29902;SDS011;30288;50.514;9.678;2023-03-01T10:16:11;22.48;;;13.40;;
29902;SDS011;30288;50.514;9.678;2023-03-01T10:18:22;25.33;;;13.50;;
29902;SDS011;30288;50.514;9.678;2023-03-01T10:20:33;22.15;;;13.65;;
29902;SDS011;30288;50.514;9.678;2023-03-01T10:22:47;21.63;;;12.82;;
29902;SDS011;30288;50.514;9.678;2023-03-01T10:24:57;24.83;;;13.07;;
29902;SDS011;30288;50.514;9.678;2023-03-01T10:27:11;23.30;;;13.75;;
29902;SDS011;30288;50.514;9.678;2023-03-01T10:29:23;22.48;;;13.50;;
29902;SDS011;30288;50.514;9.678;2023-03-01T10:31:39;22.40;;;12.73;;
29902;SDS011;30288;50.514;9.678;2023-03-01T10:33:47;22.67;;;13.73;;
29902;SDS011;30288;50.514;9.678;2023-03-01T10:35:56;19.38;;;12.40;;
29902;SDS011;30288;50.514;9.678;2023-03-01T10:38:05;23.10;;;13.07;;
29902;SDS011;30288;50.514;9.678;2023-03-01T10:40:12;23.65;;;12.60;;
29902;SDS011;30288;50.514;9.678;2023-03-01T10:42:22;24.92;;;12.40;;
29902;SDS011;30288;50.514;9.678;2023-03-01T10:44:44;20.85;;;12.82;;
29902;SDS011;30288;50.514;9.678;2023-03-01T10:46:58;20.38;;;12.25;;
29902;SDS011;30288;50.514;9.678;2023-03-01T10:49:06;20.08;;;12.75;;
29902;SDS011;30288;50.514;9.678;2023-03-01T10:53:24;22.15;;;12.57;;
29902;SDS011;30288;50.514;9.678;2023-03-01T10:55:33;30.50;;;12.90;;
29902;SDS011;30288;50.514;9.678;2023-03-01T10:57:43;23.17;;;13.38;;
29902;SDS011;30288;50.514;9.678;2023-03-01T10:59:53;21.17;;;11.90;;
29902;SDS011;30288;50.514;9.678;2023-03-01T11:02:26;20.25;;;12.85;;
29902;SDS011;30288;50.514;9.678;2023-03-01T11:04:34;21.38;;;13.32;;
29902;SDS011;30288;50.514;9.678;2023-03-01T11:06:40;22.92;;;12.23;;
29902;SDS011;30288;50.514;9.678;2023-03-01T11:08:46;21.27;;;12.23;;
29902;SDS011;30288;50.514;9.678;2023-03-01T11:11:00;18.02;;;11.52;;
29902;SDS011;30288;50.514;9.678;2023-03-01T11:13:28;22.40;;;12.18;;
29902;SDS011;30288;50.514;9.678;2023-03-01T11:15:34;25.25;;;13.32;;
29902;SDS011;30288;50.514;9.678;2023-03-01T11:17:40;21.42;;;13.45;;
29902;SDS011;30288;50.514;9.678;2023-03-01T11:20:06;23.05;;;12.73;;
29902;SDS011;30288;50.514;9.678;2023-03-01T11:22:25;19.58;;;12.00;;
29902;SDS011;30288;50.514;9.678;2023-03-01T11:24:31;21.33;;;12.73;;
29902;SDS011;30288;50.514;9.678;2023-03-01T11:26:44;23.58;;;12.52;;
29902;SDS011;30288;50.514;9.678;2023-03-01T11:28:58;20.67;;;12.63;;
29902;SDS011;30288;50.514;9.678;2023-03-01T11:31:10;22.20;;;11.48;;
29902;SDS011;30288;50.514;9.678;2023-03-01T11:33:19;22.75;;;12.40;;
29902;SDS011;30288;50.514;9.678;2023-03-01T11:35:40;20.42;;;11.38;;
29902;SDS011;30288;50.514;9.678;2023-03-01T11:37:56;19.17;;;11.23;;
29902;SDS011;30288;50.514;9.678;2023-03-01T11:40:13;19.48;;;12.38;;
29902;SDS011;30288;50.514;9.678;2023-03-01T11:42:28;24.38;;;12.90;;
29902;SDS011;30288;50.514;9.678;2023-03-01T11:44:58;20.83;;;12.20;;
29902;SDS011;30288;50.514;9.678;2023-03-01T11:47:15;21.97;;;12.07;;
29902;SDS011;30288;50.514;9.678;2023-03-01T11:49:49;22.40;;;12.13;;
29902;SDS011;30288;50.514;9.678;2023-03-01T11:52:20;19.75;;;11.98;;
29902;SDS011;30288;50.514;9.678;2023-03-01T11:54:40;19.15;;;11.73;;
29902;SDS011;30288;50.514;9.678;2023-03-01T11:57:00;22.75;;;13.60;;
29902;SDS011;30288;50.514;9.678;2023-03-01T11:59:19;22.42;;;13.70;;
29902;SDS011;30288;50.514;9.678;2023-03-01T12:02:16;20.30;;;12.18;;
29902;SDS011;30288;50.514;9.678;2023-03-01T12:04:55;20.85;;;12.00;;
29902;SDS011;30288;50.514;9.678;2023-03-01T12:07:24;19.17;;;12.48;;
29902;SDS011;30288;50.514;9.678;2023-03-01T12:09:47;27.15;;;14.38;;
29902;SDS011;30288;50.514;9.678;2023-03-01T12:12:29;21.08;;;12.98;;
29902;SDS011;30288;50.514;9.678;2023-03-01T12:14:54;24.48;;;13.00;;
29902;SDS011;30288;50.514;9.678;2023-03-01T12:17:19;23.23;;;13.13;;
29902;SDS011;30288;50.514;9.678;2023-03-01T12:22:25;23.52;;;12.85;;
29902;SDS011;30288;50.514;9.678;2023-03-01T12:27:36;20.20;;;12.88;;
29902;SDS011;30288;50.514;9.678;2023-03-01T12:30:26;21.38;;;13.27;;
29902;SDS011;30288;50.514;9.678;2023-03-01T12:32:47;25.08;;;13.60;;
29902;SDS011;30288;50.514;9.678;2023-03-01T12:35:24;20.55;;;13.20;;
29902;SDS011;30288;50.514;9.678;2023-03-01T12:38:12;22.70;;;13.77;;
29902;SDS011;30288;50.514;9.678;2023-03-01T12:40:42;20.45;;;12.57;;
29902;SDS011;30288;50.514;9.678;2023-03-01T12:43:10;21.73;;;13.32;;